Hartland Point — ZIQS6 — position and weather

sailwx.info

Track history (hours):
 
Tides and Currents Weather Stations Pressure Air Temp Water Temp Dewpoint Dewpoint Depression Visibility Wind Speed Wind Dir Waves Ship Positions

Hartland Point

Last reported at 2017-Apr-29 03:25 UTC. Time now 2017-Apr-29 15:41 UTC.
Position N 39°28' W 009°50'.

Length 193 m; draft 5.3 m.

Type: Ship. MMSI: 235505000.

Date/timePositionNaut miles runAvg speedWind from/ knotsBaromVisibWave heightAir tempDewpointWater temp
2017-Apr-29 03:25N 39°28' W 009°50'817.6
2017-Apr-29 02:59N 39°21' W 009°50'917.9
2017-Apr-29 02:31N 39°12' W 009°50'918.0
2017-Apr-29 02:01N 39°03' W 009°50'917.8
2017-Apr-29 01:31N 38°54' W 009°51'918.2
2017-Apr-29 01:00N 38°45' W 009°51'918.1
2017-Apr-29 00:31N 38°36' W 009°49'918.1
2017-Apr-29 00:00N 38°27' W 009°47'918.1
2017-Apr-28 23:30N 38°19' W 009°44'917.9
2017-Apr-28 23:00N 38°10' W 009°42'918.0
2017-Apr-28 22:31N 38°01' W 009°39'917.9
2017-Apr-28 22:00N 37°52' W 009°37'917.8
2017-Apr-28 21:30N 37°44' W 009°34'6716.3
2017-Apr-28 17:24N 36°43' W 008°60'717.8
2017-Apr-28 17:00N 36°40' W 008°52'14217.5
2017-Apr-28 08:55N 35°58' W 006°04'1016.3
2017-Apr-28 08:16N 35°57' W 005°51'615.6
2017-Apr-28 07:52N 35°58' W 005°43'614.1
2017-Apr-28 07:28N 35°58' W 005°36'714.4
2017-Apr-28 07:00N 35°60' W 005°28'815.3
2017-Apr-28 06:30N 36°01' W 005°19'714.8
2017-Apr-28 06:01N 36°02' W 005°10'  
2017-Apr-25 21:53N 36°41' E 013°42'717.8
2017-Apr-25 21:29N 36°38' E 013°50'817.3
2017-Apr-25 20:59N 36°34' E 013°59'817.0
2017-Apr-25 20:30N 36°31' E 014°09'917.3
2017-Apr-25 20:00N 36°29' E 014°20'817.3
2017-Apr-25 19:30N 36°26' E 014°30'917.1
2017-Apr-25 19:00N 36°25' E 014°40'71514.4
2017-Apr-23 17:18N 40°54' E 028°49'516.9
2017-Apr-23 17:00N 40°56' E 028°55'  
2017-Apr-21 11:55N 40°59' E 028°60'4 8.7
2017-Apr-21 11:30N 40°56' E 028°58'611.0
2017-Apr-21 11:00N 40°52' E 028°52'11 0.5
2017-Apr-20 14:53N 40°42' E 028°52'3 1.6
2017-Apr-20 12:43N 40°45' E 028°50'0 0.7
2017-Apr-20 12:24N 40°45' E 028°50'0 0.8
2017-Apr-20 11:57N 40°45' E 028°50'3 7.4
2017-Apr-20 11:30N 40°46' E 028°46'1 1.3
2017-Apr-20 10:57N 40°46' E 028°45'1 0.7
2017-Apr-20 09:47N 40°45' E 028°45'27111.6
2017-Apr-19 10:27N 37°40' E 024°29'  
Track history (hours):
 
Tides and Currents Weather Stations Pressure Air Temp Water Temp Dewpoint Dewpoint Depression Visibility Wind Speed Wind Dir Waves Ship Positions

Hartland Point

Last reported at 2017-Apr-29 03:25 UTC. Time now 2017-Apr-29 15:41 UTC.
Position N 39°28' W 009°50'.

Length 193 m; draft 5.3 m.

Type: Ship. MMSI: 235505000.

Date/timePositionNaut miles runAvg speedWind from/ knotsBaromVisibWave heightAir tempDewpointWater temp
2017-Apr-29 03:25N 39°28' W 009°50'817.6
2017-Apr-29 02:59N 39°21' W 009°50'917.9
2017-Apr-29 02:31N 39°12' W 009°50'918.0
2017-Apr-29 02:01N 39°03' W 009°50'917.8
2017-Apr-29 01:31N 38°54' W 009°51'918.2
2017-Apr-29 01:00N 38°45' W 009°51'918.1
2017-Apr-29 00:31N 38°36' W 009°49'918.1
2017-Apr-29 00:00N 38°27' W 009°47'918.1
2017-Apr-28 23:30N 38°19' W 009°44'917.9
2017-Apr-28 23:00N 38°10' W 009°42'918.0
2017-Apr-28 22:31N 38°01' W 009°39'917.9
2017-Apr-28 22:00N 37°52' W 009°37'917.8
2017-Apr-28 21:30N 37°44' W 009°34'6716.3
2017-Apr-28 17:24N 36°43' W 008°60'717.8
2017-Apr-28 17:00N 36°40' W 008°52'14217.5
2017-Apr-28 08:55N 35°58' W 006°04'1016.3
2017-Apr-28 08:16N 35°57' W 005°51'615.6
2017-Apr-28 07:52N 35°58' W 005°43'614.1
2017-Apr-28 07:28N 35°58' W 005°36'714.4
2017-Apr-28 07:00N 35°60' W 005°28'815.3
2017-Apr-28 06:30N 36°01' W 005°19'714.8
2017-Apr-28 06:01N 36°02' W 005°10'  
2017-Apr-25 21:53N 36°41' E 013°42'717.8
2017-Apr-25 21:29N 36°38' E 013°50'817.3
2017-Apr-25 20:59N 36°34' E 013°59'817.0
2017-Apr-25 20:30N 36°31' E 014°09'917.3
2017-Apr-25 20:00N 36°29' E 014°20'817.3
2017-Apr-25 19:30N 36°26' E 014°30'917.1
2017-Apr-25 19:00N 36°25' E 014°40'71514.4
2017-Apr-23 17:18N 40°54' E 028°49'516.9
2017-Apr-23 17:00N 40°56' E 028°55'  
2017-Apr-21 11:55N 40°59' E 028°60'4 8.7
2017-Apr-21 11:30N 40°56' E 028°58'611.0
2017-Apr-21 11:00N 40°52' E 028°52'11 0.5
2017-Apr-20 14:53N 40°42' E 028°52'3 1.6
2017-Apr-20 12:43N 40°45' E 028°50'0 0.7
2017-Apr-20 12:24N 40°45' E 028°50'0 0.8
2017-Apr-20 11:57N 40°45' E 028°50'3 7.4
2017-Apr-20 11:30N 40°46' E 028°46'1 1.3
2017-Apr-20 10:57N 40°46' E 028°45'1 0.7
2017-Apr-20 09:47N 40°45' E 028°45'27111.6
2017-Apr-19 10:27N 37°40' E 024°29'  

Dump ship's entire track history